Time;durP1;ratioP1;P1;durP2;ratioP2;P2;SDS_P1;SDS_P2;PMS_P1;PMS_P2;Temp;Humidity;BMP_temperature;BMP_pressure;BME280_temperature;BME280_humidity;BME280_pressure;Samples;Min_cycle;Max_cycle;Signal;HPM_P1;HPM_P2
2023/08/03 00:01:24;;;;;;;11.38;3.75;;;;;;;14.48;100.00;98884.59;5062853;28;20078;-70
2023/08/03 00:03:49;;;;;;;12.45;4.03;;;;;;;14.49;100.00;98891.63;5061496;28;20464;-69
2023/08/03 00:06:14;;;;;;;13.95;4.25;;;;;;;14.49;100.00;98896.94;5064098;28;20068;-69
2023/08/03 00:08:40;;;;;;;15.20;4.55;;;;;;;14.49;100.00;98888.97;5060768;28;20495;-70
2023/08/03 00:11:05;;;;;;;15.40;4.70;;;;;;;14.50;100.00;98905.78;5063656;28;20352;-70
2023/08/03 00:13:31;;;;;;;17.85;4.97;;;;;;;14.51;100.00;98892.41;5061579;28;20035;-70
2023/08/03 00:15:56;;;;;;;16.98;5.13;;;;;;;14.54;100.00;98904.72;5062364;28;20057;-69
2023/08/03 00:18:21;;;;;;;19.27;5.82;;;;;;;14.52;100.00;98894.16;5061627;28;20024;-69
2023/08/03 00:20:47;;;;;;;20.55;6.65;;;;;;;14.54;100.00;98908.25;5061113;28;20078;-69
2023/08/03 00:23:13;;;;;;;21.70;7.50;;;;;;;14.55;100.00;98907.31;5063942;28;20033;-69
2023/08/03 00:25:38;;;;;;;21.55;8.00;;;;;;;14.59;100.00;98903.59;5060638;28;20043;-70
2023/08/03 00:28:04;;;;;;;20.38;8.45;;;;;;;14.59;100.00;98908.03;5063636;28;20494;-69
2023/08/03 00:30:29;;;;;;;21.08;8.93;;;;;;;14.60;100.00;98915.94;5061976;28;20028;-69
2023/08/03 00:32:55;;;;;;;23.52;9.20;;;;;;;14.61;100.00;98914.16;5061709;28;20025;-70
2023/08/03 00:35:20;;;;;;;23.08;10.52;;;;;;;14.64;100.00;98945.97;5063174;28;20075;-75
2023/08/03 00:37:45;;;;;;;24.25;10.93;;;;;;;14.63;100.00;98925.63;5060560;28;20380;-70
2023/08/03 00:40:11;;;;;;;24.63;11.70;;;;;;;14.63;100.00;98946.91;5063931;28;20051;-71
2023/08/03 00:42:36;;;;;;;26.60;12.35;;;;;;;14.67;100.00;98937.88;5060800;28;20124;-76
2023/08/03 00:45:03;;;;;;;25.80;12.65;;;;;;;14.67;100.00;98951.16;5062673;28;20130;-70
2023/08/03 00:47:28;;;;;;;27.15;11.90;;;;;;;14.68;100.00;98981.25;5065430;28;20101;-71
2023/08/03 00:49:53;;;;;;;25.23;12.57;;;;;;;14.68;100.00;98970.63;5065557;28;20037;-71
2023/08/03 00:52:20;;;;;;;27.67;12.82;;;;;;;14.66;100.00;98967.19;5066622;28;20077;-79
2023/08/03 00:54:45;;;;;;;26.85;14.73;;;;;;;14.69;100.00;98986.53;5064249;28;20132;-78
2023/08/03 00:57:10;;;;;;;29.75;16.85;;;;;;;14.71;100.00;98986.44;5067335;28;20052;-71
2023/08/03 00:59:36;;;;;;;29.67;16.05;;;;;;;14.71;100.00;98991.78;5064221;28;20029;-71
2023/08/03 01:02:01;;;;;;;28.92;15.95;;;;;;;14.71;100.00;98997.09;5066427;28;20111;-78
2023/08/03 01:04:27;;;;;;;31.80;17.17;;;;;;;14.68;100.00;98998.09;5065315;28;20064;-71
2023/08/03 01:06:52;;;;;;;34.63;16.38;;;;;;;14.69;100.00;98998.97;5065021;28;20064;-72
2023/08/03 01:09:18;;;;;;;32.97;16.88;;;;;;;14.69;100.00;99004.28;5066783;28;20115;-72
2023/08/03 01:11:43;;;;;;;35.15;17.13;;;;;;;14.67;100.00;99003.50;5063546;28;20403;-72
2023/08/03 01:14:09;;;;;;;35.58;17.92;;;;;;;14.68;100.00;99007.84;5066736;28;20048;-74
2023/08/03 01:16:35;;;;;;;35.75;17.75;;;;;;;14.68;100.00;99014.06;5064253;28;20048;-72
2023/08/03 01:19:00;;;;;;;36.42;18.13;;;;;;;14.70;100.00;99012.19;5065611;28;20033;-71
2023/08/03 01:21:27;;;;;;;34.05;17.80;;;;;;;14.72;100.00;99014.78;5065280;28;20063;-72
2023/08/03 01:23:52;;;;;;;32.70;17.55;;;;;;;14.74;100.00;99024.44;5064702;28;20514;-71
2023/08/03 01:26:18;;;;;;;32.40;17.02;;;;;;;14.74;100.00;99023.59;5066210;28;20058;-71
2023/08/03 01:28:43;;;;;;;32.40;17.90;;;;;;;14.73;100.00;99025.34;5063469;28;20115;-71
2023/08/03 01:31:09;;;;;;;31.33;17.10;;;;;;;14.73;100.00;99043.13;5066715;28;20025;-71
2023/08/03 01:33:34;;;;;;;31.85;17.52;;;;;;;14.72;100.00;99052.03;5063741;28;20123;-72
2023/08/03 01:36:00;;;;;;;31.73;16.52;;;;;;;14.73;100.00;99053.75;5065463;28;20031;-71
2023/08/03 01:38:25;;;;;;;31.25;16.35;;;;;;;14.72;100.00;99036.06;5065023;28;20021;-71
2023/08/03 01:40:51;;;;;;;31.25;16.33;;;;;;;14.71;100.00;99053.81;5064085;28;20033;-71
2023/08/03 01:43:16;;;;;;;31.55;15.48;;;;;;;14.74;100.00;99060.81;5066414;28;20039;-71
2023/08/03 01:45:41;;;;;;;31.27;16.15;;;;;;;14.73;100.00;99049.28;5062962;28;20085;-70
2023/08/03 01:48:07;;;;;;;31.60;15.43;;;;;;;14.73;100.00;99049.28;5064670;28;20383;-78
2023/08/03 01:50:32;;;;;;;29.70;14.85;;;;;;;14.70;100.00;99054.75;5064067;28;20392;-70
2023/08/03 01:52:57;;;;;;;28.88;14.02;;;;;;;14.70;100.00;99060.06;5064524;28;20075;-70
2023/08/03 01:55:23;;;;;;;27.55;13.43;;;;;;;14.69;100.00;99057.47;5065081;28;20107;-70
2023/08/03 01:57:48;;;;;;;26.30;12.43;;;;;;;14.70;100.00;99053.88;5063038;28;20048;-70
2023/08/03 02:00:13;;;;;;;24.85;11.43;;;;;;;14.67;100.00;99054.88;5066190;28;20029;-70
2023/08/03 02:02:39;;;;;;;23.77;10.88;;;;;;;14.71;100.00;99050.28;5062688;28;20033;-71
2023/08/03 02:05:06;;;;;;;25.48;10.13;;;;;;;14.68;100.00;99056.63;5065392;28;20058;-71
2023/08/03 02:07:46;;;;;;;24.08;10.05;;;;;;;14.68;100.00;99059.28;5063679;28;20035;-71
2023/08/03 02:10:12;;;;;;;25.52;10.40;;;;;;;14.67;100.00;99064.66;5058615;28;20032;-71
2023/08/03 02:12:37;;;;;;;23.77;9.75;;;;;;;14.67;100.00;99059.34;5065696;28;20379;-70
2023/08/03 02:15:04;;;;;;;25.40;10.75;;;;;;;14.66;100.00;99060.25;5063240;28;20049;-71
2023/08/03 02:17:30;;;;;;;27.35;11.82;;;;;;;14.66;100.00;99070.88;5064317;28;20033;-71
2023/08/03 02:19:55;;;;;;;27.45;11.88;;;;;;;14.68;100.00;99053.94;5064423;28;20112;-74
2023/08/03 02:22:20;;;;;;;26.95;11.90;;;;;;;14.68;100.00;99061.03;5063051;28;20029;-71
2023/08/03 02:24:46;;;;;;;29.13;12.43;;;;;;;14.67;100.00;99048.69;5065391;28;20146;-71
2023/08/03 02:27:11;;;;;;;30.13;12.50;;;;;;;14.67;100.00;99049.56;5062613;28;20329;-71
2023/08/03 02:29:36;;;;;;;30.23;12.55;;;;;;;14.66;100.00;99041.63;5065034;28;20379;-70
2023/08/03 02:32:02;;;;;;;33.03;13.13;;;;;;;14.67;100.00;99038.91;5063066;28;20056;-71
2023/08/03 02:34:27;;;;;;;30.13;12.10;;;;;;;14.68;100.00;99058.38;5063799;28;20079;-71
2023/08/03 02:36:52;;;;;;;31.55;12.60;;;;;;;14.67;100.00;99059.34;5064509;28;20039;-70
2023/08/03 02:39:18;;;;;;;28.38;12.18;;;;;;;14.67;100.00;99054.03;5062249;28;20057;-71
2023/08/03 02:41:43;;;;;;;29.10;12.27;;;;;;;14.64;100.00;99052.34;5065522;28;20476;-71
2023/08/03 02:44:08;;;;;;;29.52;12.48;;;;;;;14.63;100.00;99047.94;5061935;28;20047;-70
2023/08/03 02:46:34;;;;;;;33.40;12.43;;;;;;;14.65;100.00;99043.44;5064534;28;20025;-71
2023/08/03 02:49:00;;;;;;;29.83;11.70;;;;;;;14.64;100.00;99023.94;5063538;28;20115;-70
2023/08/03 02:51:25;;;;;;;30.10;11.23;;;;;;;14.63;100.00;99053.25;5063029;28;20029;-73
2023/08/03 02:53:51;;;;;;;29.55;12.05;;;;;;;14.60;100.00;99035.59;5064581;28;20035;-70
2023/08/03 02:56:16;;;;;;;29.50;12.27;;;;;;;14.59;100.00;99052.50;5061726;28;20084;-70
2023/08/03 02:58:41;;;;;;;31.73;11.75;;;;;;;14.59;100.00;99057.81;5065111;28;20028;-70
2023/08/03 03:01:07;;;;;;;30.17;11.18;;;;;;;14.63;100.00;99064.78;5062204;28;20058;-70
2023/08/03 03:03:32;;;;;;;30.77;11.05;;;;;;;14.59;100.00;99057.81;5063642;28;20074;-70
2023/08/03 03:05:57;;;;;;;27.55;10.73;;;;;;;14.58;100.00;99071.19;5063218;28;20036;-71
2023/08/03 03:08:23;;;;;;;28.33;11.30;;;;;;;14.58;100.00;99061.41;5061867;28;20029;-75
2023/08/03 03:10:48;;;;;;;29.85;10.90;;;;;;;14.58;100.00;99080.00;5064385;28;20046;-70
2023/08/03 03:13:13;;;;;;;28.90;10.68;;;;;;;14.56;100.00;99063.25;5061364;28;20029;-81
2023/08/03 03:15:39;;;;;;;28.70;10.68;;;;;;;14.57;100.00;99080.94;5064282;28;20098;-72
2023/08/03 03:18:04;;;;;;;29.63;11.30;;;;;;;14.54;100.00;99086.38;5062047;28;20072;-70
2023/08/03 03:20:29;;;;;;;27.25;10.65;;;;;;;14.53;100.00;99081.97;5063329;28;20116;-70
2023/08/03 03:22:55;;;;;;;30.98;10.55;;;;;;;14.52;100.00;99088.25;5063565;28;20031;-72
2023/08/03 03:25:20;;;;;;;25.80;9.52;;;;;;;14.58;100.00;99087.13;5061671;28;20033;-71
2023/08/03 03:27:45;;;;;;;30.73;10.60;;;;;;;14.54;100.00;99086.38;5064707;28;20391;-71
2023/08/03 03:30:11;;;;;;;25.65;9.38;;;;;;;14.53;100.00;99083.78;5061366;28;20044;-71
2023/08/03 03:32:36;;;;;;;26.30;9.60;;;;;;;14.55;100.00;99097.88;5063785;28;20028;-71
2023/08/03 03:35:02;;;;;;;27.17;9.57;;;;;;;14.52;100.00;99106.84;5062409;28;20040;-71
2023/08/03 03:37:28;;;;;;;24.52;9.45;;;;;;;14.53;100.00;99108.56;5062577;28;20044;-71
2023/08/03 03:39:53;;;;;;;23.83;8.32;;;;;;;14.52;100.00;99101.53;5063314;28;20048;-71
2023/08/03 03:42:18;;;;;;;25.67;8.43;;;;;;;14.52;100.00;99109.50;5061425;28;20024;-72
2023/08/03 03:44:44;;;;;;;24.55;9.07;;;;;;;14.50;100.00;99123.78;5064389;28;20029;-71
2023/08/03 03:47:09;;;;;;;25.83;9.40;;;;;;;14.47;100.00;99122.97;5061039;28;20033;-71
2023/08/03 03:49:34;;;;;;;26.88;10.15;;;;;;;14.46;100.00;99137.19;5063824;28;20029;-71
2023/08/03 03:52:00;;;;;;;27.42;10.05;;;;;;;14.49;100.00;99152.16;5061144;28;20032;-71
2023/08/03 03:54:25;;;;;;;26.23;9.95;;;;;;;14.48;100.00;99145.09;5062085;28;20112;-71
2023/08/03 03:56:50;;;;;;;27.55;10.45;;;;;;;14.48;100.00;99147.75;5063623;28;20475;-71
2023/08/03 03:59:16;;;;;;;23.95;9.40;;;;;;;14.46;100.00;99153.16;5060634;28;20468;-71
2023/08/03 04:01:41;;;;;;;25.23;9.82;;;;;;;14.47;100.00;99157.53;5056848;28;20448;-71
2023/08/03 04:04:06;;;;;;;26.58;9.18;;;;;;;14.46;100.00;99147.81;5063364;28;20422;-71
2023/08/03 04:06:32;;;;;;;23.95;9.32;;;;;;;14.46;100.00;99154.94;5061910;28;20074;-71
2023/08/03 04:08:57;;;;;;;23.23;8.50;;;;;;;14.45;100.00;99153.22;5062312;28;20103;-71
2023/08/03 04:11:22;;;;;;;24.75;8.48;;;;;;;14.46;100.00;99154.94;5063189;28;20102;-75
2023/08/03 04:13:48;;;;;;;24.38;8.50;;;;;;;14.44;100.00;99170.06;5060802;28;20033;-71
2023/08/03 04:16:13;;;;;;;21.70;8.27;;;;;;;14.41;100.00;99156.91;5064137;28;20109;-81
2023/08/03 04:18:39;;;;;;;22.77;8.35;;;;;;;14.45;100.00;99179.78;5060877;28;20025;-79
2023/08/03 04:21:04;;;;;;;23.92;8.35;;;;;;;14.44;100.00;99167.41;5066658;28;20029;-70
2023/08/03 04:23:30;;;;;;;24.90;9.50;;;;;;;14.45;100.00;99183.31;5066333;28;20060;-71
2023/08/03 04:25:55;;;;;;;24.10;9.07;;;;;;;14.46;100.00;99184.19;5065622;28;20503;-71
2023/08/03 04:28:21;;;;;;;25.73;9.05;;;;;;;14.46;100.00;99194.81;5067491;28;20387;-71
2023/08/03 04:30:46;;;;;;;22.45;8.88;;;;;;;14.46;100.00;99184.19;5064603;28;20049;-72
2023/08/03 04:33:11;;;;;;;22.85;9.10;;;;;;;14.47;100.00;99204.50;5059752;28;20029;-71
2023/08/03 04:35:37;;;;;;;28.05;10.07;;;;;;;14.49;100.00;99226.59;5065146;28;20112;-71
2023/08/03 04:38:02;;;;;;;24.58;9.57;;;;;;;14.48;100.00;99222.22;5066371;28;20045;-71
2023/08/03 04:40:27;;;;;;;25.13;9.70;;;;;;;14.52;100.00;99214.97;5066158;28;20024;-71
2023/08/03 04:42:52;;;;;;;24.15;10.45;;;;;;;14.51;100.00;99222.09;5065223;28;20028;-70
2023/08/03 04:45:18;;;;;;;22.98;9.55;;;;;;;14.52;100.00;99229.16;5067352;28;20032;-70
2023/08/03 04:47:43;;;;;;;22.83;8.82;;;;;;;14.53;100.00;99222.03;5064172;28;20033;-81
2023/08/03 04:50:09;;;;;;;21.95;8.75;;;;;;;14.51;100.00;99229.22;5067142;28;20036;-77
2023/08/03 04:52:34;;;;;;;21.73;7.70;;;;;;;14.47;100.00;99228.44;5064973;28;20027;-72
2023/08/03 04:54:59;;;;;;;20.15;7.93;;;;;;;14.47;100.00;99231.09;5065722;28;20063;-70
2023/08/03 04:57:25;;;;;;;20.55;7.72;;;;;;;14.44;100.00;99236.53;5066379;28;20020;-70
2023/08/03 04:59:50;;;;;;;21.08;7.95;;;;;;;14.42;100.00;99249.03;5064325;28;20032;-70
2023/08/03 05:02:15;;;;;;;19.95;7.82;;;;;;;14.41;100.00;99239.31;5067486;28;20020;-70
2023/08/03 05:04:41;;;;;;;21.65;8.05;;;;;;;14.45;100.00;99246.25;5063861;28;20403;-71
2023/08/03 05:07:06;;;;;;;21.60;8.90;;;;;;;14.45;100.00;99257.75;5066685;28;20039;-70
2023/08/03 05:09:31;;;;;;;20.85;8.50;;;;;;;14.46;100.00;99253.31;5065520;28;20029;-78
2023/08/03 05:11:57;;;;;;;21.30;7.68;;;;;;;14.48;100.00;99264.75;5065020;28;20025;-70
2023/08/03 05:14:23;;;;;;;20.48;7.05;;;;;;;14.50;100.00;99265.53;5065937;28;20549;-70
2023/08/03 05:16:48;;;;;;;19.08;6.55;;;;;;;14.48;100.00;99267.41;5063857;28;20065;-70
2023/08/03 05:19:14;;;;;;;19.27;6.35;;;;;;;14.51;100.00;99285.91;5067020;28;20041;-70
2023/08/03 05:21:39;;;;;;;20.00;6.00;;;;;;;14.51;100.00;99277.06;5063787;28;20024;-86
2023/08/03 05:24:05;;;;;;;17.75;5.30;;;;;;;14.49;100.00;99279.78;5065966;28;20040;-70
2023/08/03 05:26:34;;;;;;;19.23;5.47;;;;;;;14.53;100.00;99296.47;5064678;28;20135;-75
2023/08/03 05:28:59;;;;;;;18.85;5.40;;;;;;;14.48;100.00;99317.91;5054642;28;20028;-81
2023/08/03 05:31:26;;;;;;;21.55;6.07;;;;;;;14.51;100.00;99301.00;5059111;28;20036;-82
2023/08/03 05:33:51;;;;;;;20.42;5.90;;;;;;;14.51;100.00;99309.81;5055590;28;20055;-79
2023/08/03 05:36:17;;;;;;;21.63;6.03;;;;;;;14.51;100.00;99296.53;5056300;28;20048;-79
2023/08/03 05:38:42;;;;;;;18.80;5.90;;;;;;;14.53;100.00;99304.44;5062947;28;20104;-79
2023/08/03 05:41:15;;;;;;;20.38;6.03;;;;;;;14.55;100.00;99313.25;5057508;28;20029;-85
2023/08/03 05:43:40;;;;;;;21.55;6.07;;;;;;;14.56;100.00;99313.19;5062646;28;20048;-86
2023/08/03 05:46:12;;;;;;;21.23;6.20;;;;;;;14.55;100.00;99323.91;5065484;28;20075;-81
2023/08/03 05:48:37;;;;;;;21.67;5.95;;;;;;;14.54;100.00;99328.31;5063625;28;20091;-81
2023/08/03 05:51:02;;;;;;;21.60;6.13;;;;;;;14.57;100.00;99322.88;5065621;28;20025;-79
2023/08/03 05:53:28;;;;;;;20.83;5.82;;;;;;;14.56;100.00;99345.09;5062937;28;20029;-81
2023/08/03 05:55:53;;;;;;;21.50;5.70;;;;;;;14.54;100.00;99346.94;5065964;28;20056;-79
2023/08/03 05:58:19;;;;;;;19.73;4.97;;;;;;;14.51;100.00;99347.03;5063552;28;20123;-87
2023/08/03 06:00:49;;;;;;;20.65;5.10;;;;;;;14.47;100.00;99356.06;5064028;28;20025;-90
2023/08/03 06:03:16;;;;;;;21.17;4.95;;;;;;;14.45;100.00;99352.59;5064107;28;20029;-83
2023/08/03 06:05:44;;;;;;;20.60;4.85;;;;;;;14.47;100.00;99356.06;5064193;28;20422;-76
2023/08/03 06:08:17;;;;;;;20.27;4.75;;;;;;;14.46;100.00;99357.00;5064829;28;20020;-80
2023/08/03 06:10:44;;;;;;;17.63;4.47;;;;;;;14.50;100.00;99361.25;5065615;28;20025;-79
2023/08/03 06:13:13;;;;;;;19.90;4.82;;;;;;;14.52;100.00;99362.09;5061904;28;20035;-84
2023/08/03 06:15:39;;;;;;;18.10;4.40;;;;;;;14.57;100.00;99372.56;5064401;28;20419;-78
2023/08/03 06:18:09;;;;;;;20.73;4.40;;;;;;;14.59;100.00;99382.22;5064000;28;20032;-82
2023/08/03 06:20:35;;;;;;;18.80;4.55;;;;;;;14.61;100.00;99387.47;5064579;28;20021;-86
2023/08/03 06:23:00;;;;;;;20.70;4.68;;;;;;;14.62;100.00;99373.28;5064502;28;20036;-86
2023/08/03 06:25:27;;;;;;;20.58;4.60;;;;;;;14.67;100.00;99384.63;5062834;28;20502;-81
2023/08/03 06:27:52;;;;;;;18.85;4.57;;;;;;;14.58;100.00;99383.13;5065214;28;20123;-83
2023/08/03 06:30:18;;;;;;;19.42;4.55;;;;;;;14.58;100.00;99382.28;5062175;28;20112;-82
2023/08/03 06:32:43;;;;;;;20.40;4.53;;;;;;;14.61;100.00;99384.81;5065382;28;20028;-85
2023/08/03 06:35:41;;;;;;;22.83;5.10;;;;;;;14.62;100.00;99394.53;5063004;28;20467;-84
2023/08/03 06:38:09;;;;;;;21.17;5.00;;;;;;;14.60;100.00;99396.38;5060465;28;20491;-88
2023/08/03 06:40:35;;;;;;;24.48;5.63;;;;;;;14.57;100.00;99391.16;5063898;28;20108;-89
2023/08/03 06:43:02;;;;;;;23.08;6.07;;;;;;;14.58;100.00;99412.38;5064401;28;20136;-81
2023/08/03 06:45:31;;;;;;;20.67;5.35;;;;;;;14.56;100.00;99416.00;5063292;28;20081;-88
2023/08/03 06:47:57;;;;;;;20.15;5.40;;;;;;;14.53;100.00;99408.16;5063528;28;20376;-85
2023/08/03 06:50:23;;;;;;;20.75;6.00;;;;;;;14.55;100.00;99409.84;5064171;28;20036;-84
2023/08/03 06:52:49;;;;;;;22.08;6.03;;;;;;;14.56;100.00;99429.31;5062132;28;20029;-84
2023/08/03 06:55:15;;;;;;;19.88;5.00;;;;;;;14.50;100.00;99427.72;5063754;28;20476;-77
2023/08/03 06:57:40;;;;;;;21.15;5.30;;;;;;;14.59;100.00;99430.09;5061742;28;20044;-73
2023/08/03 07:00:06;;;;;;;19.95;4.80;;;;;;;14.66;100.00;99440.53;5064258;28;20028;-73
2023/08/03 07:02:31;;;;;;;18.75;4.07;;;;;;;14.70;100.00;99432.38;5062430;28;20056;-79
2023/08/03 07:04:56;;;;;;;18.50;4.18;;;;;;;14.77;100.00;99431.25;5063095;28;20539;-72
2023/08/03 07:07:23;;;;;;;17.20;3.80;;;;;;;14.80;100.00;99443.59;5063713;28;20098;-81
2023/08/03 07:09:48;;;;;;;15.13;3.50;;;;;;;14.71;100.00;99454.53;5061734;28;20033;-87
2023/08/03 07:12:15;;;;;;;17.98;3.60;;;;;;;14.74;100.00;99443.81;5064786;28;20039;-76
2023/08/03 07:14:40;;;;;;;15.43;3.50;;;;;;;14.84;100.00;99447.00;5060671;28;20035;-85
2023/08/03 07:17:06;;;;;;;16.38;4.00;;;;;;;15.04;100.00;99462.25;5064305;28;20455;-80
2023/08/03 07:19:31;;;;;;;17.00;3.78;;;;;;;15.29;100.00;99476.41;5060040;28;20391;-80
2023/08/03 07:21:57;;;;;;;19.70;3.50;;;;;;;15.33;100.00;99472.72;5064010;28;20421;-70
2023/08/03 07:24:23;;;;;;;16.75;3.70;;;;;;;15.33;100.00;99454.09;5061975;28;20052;-75
2023/08/03 07:26:49;;;;;;;17.08;3.58;;;;;;;15.27;100.00;99469.41;5062893;28;20091;-69
2023/08/03 07:29:15;;;;;;;13.52;3.35;;;;;;;15.26;100.00;99460.56;5061936;28;20028;-69
2023/08/03 07:31:40;;;;;;;16.77;3.30;;;;;;;15.28;100.00;99461.34;5061641;28;20051;-80
2023/08/03 07:34:05;;;;;;;16.45;3.80;;;;;;;15.53;100.00;99476.41;5064442;28;20468;-75
2023/08/03 07:36:31;;;;;;;19.10;3.60;;;;;;;15.63;100.00;99476.94;5060905;28;20044;-69
2023/08/03 07:38:56;;;;;;;16.38;3.20;;;;;;;15.48;100.00;99468.59;5063833;28;20028;-78
2023/08/03 07:41:21;;;;;;;18.80;3.83;;;;;;;15.42;100.00;99478.59;5061873;28;20032;-82
2023/08/03 07:43:47;;;;;;;17.98;3.42;;;;;;;15.44;100.00;99466.97;5062207;28;20441;-71
2023/08/03 07:46:13;;;;;;;14.45;3.20;;;;;;;15.48;100.00;99483.72;5062096;28;20028;-83
2023/08/03 07:48:38;;;;;;;18.90;3.40;;;;;;;15.42;100.00;99470.63;5062258;28;20027;-83
2023/08/03 07:51:14;;;;;;;17.58;3.22;;;;;;;15.43;100.00;99486.53;5062859;28;20020;-73
2023/08/03 07:53:39;;;;;;;17.67;3.30;;;;;;;15.39;100.00;99486.72;5062647;28;20040;-83
2023/08/03 07:56:16;;;;;;;18.63;3.60;;;;;;;15.29;100.00;99491.50;5062662;28;20064;-70
2023/08/03 07:58:42;;;;;;;17.38;3.25;;;;;;;15.24;100.00;99480.16;5062855;28;20024;-81
2023/08/03 08:01:08;;;;;;;17.85;3.20;;;;;;;15.16;100.00;99494.63;5062358;28;20491;-69
2023/08/03 08:03:35;;;;;;;16.45;3.42;;;;;;;15.07;100.00;99510.03;5061724;28;20021;-82
2023/08/03 08:06:08;;;;;;;18.35;3.30;;;;;;;15.03;100.00;99521.72;5063450;28;20044;-76
2023/08/03 08:08:34;;;;;;;20.10;4.28;;;;;;;15.05;100.00;99517.22;5061466;28;20029;-71
2023/08/03 08:10:59;;;;;;;18.52;3.83;;;;;;;15.01;100.00;99526.22;5063789;28;20028;-81
2023/08/03 08:13:25;;;;;;;21.25;4.10;;;;;;;14.93;100.00;99535.34;5060380;28;20117;-69
2023/08/03 08:15:50;;;;;;;18.33;3.90;;;;;;;14.90;100.00;99542.56;5063559;28;20072;-72
2023/08/03 08:18:15;;;;;;;19.65;3.88;;;;;;;14.91;100.00;99549.63;5061930;28;20067;-68
2023/08/03 08:20:41;;;;;;;19.20;3.90;;;;;;;14.98;100.00;99554.69;5060419;28;20070;-75
2023/08/03 08:23:07;;;;;;;17.77;3.95;;;;;;;15.03;100.00;99556.31;5063020;28;20046;-70
2023/08/03 08:25:33;;;;;;;21.35;3.83;;;;;;;15.01;100.00;99553.69;5061893;28;20028;-69
2023/08/03 08:27:59;;;;;;;19.35;3.80;;;;;;;15.11;100.00;99562.25;5062003;28;20083;-72
2023/08/03 08:30:24;;;;;;;19.55;3.80;;;;;;;15.11;100.00;99564.91;5062803;28;20025;-81
2023/08/03 08:32:49;;;;;;;19.45;3.45;;;;;;;15.13;100.00;99571.03;5060783;28;20021;-70
2023/08/03 08:35:15;;;;;;;18.08;3.40;;;;;;;15.18;100.00;99581.53;5063521;28;20530;-79
2023/08/03 08:37:40;;;;;;;16.92;3.20;;;;;;;15.16;100.00;99586.91;5060633;28;20081;-70
2023/08/03 08:40:11;;;;;;;16.65;3.33;;;;;;;15.22;100.00;99602.66;5062939;28;20024;-81
2023/08/03 08:42:37;;;;;;;15.98;2.97;;;;;;;15.25;100.00;99588.41;5060870;28;20047;-75
2023/08/03 08:45:07;;;;;;;14.20;3.42;;;;;;;15.29;100.00;99595.31;5062440;28;20033;-76
2023/08/03 08:47:32;;;;;;;15.10;3.03;;;;;;;15.30;100.00;99613.03;5060398;28;20578;-70
2023/08/03 08:49:58;;;;;;;17.27;3.38;;;;;;;15.32;100.00;99604.09;5062205;28;20116;-76
2023/08/03 08:52:26;;;;;;;14.98;3.00;;;;;;;15.40;100.00;99597.63;5061261;28;20036;-81
2023/08/03 08:55:29;;;;;;;14.88;3.10;;;;;;;15.56;100.00;99603.28;5062251;28;20029;-72
2023/08/03 08:57:56;;;;;;;16.63;2.80;;;;;;;15.58;100.00;99610.28;5060490;28;20067;-69
2023/08/03 09:00:24;;;;;;;13.00;2.65;;;;;;;15.67;100.00;99612.63;5062130;28;20079;-74
2023/08/03 09:02:56;;;;;;;12.45;2.50;;;;;;;15.68;100.00;99625.03;5061673;28;20100;-81
2023/08/03 09:05:24;;;;;;;13.27;2.63;;;;;;;15.62;100.00;99621.69;5061705;28;20029;-78
2023/08/03 09:08:03;;;;;;;11.90;2.60;;;;;;;15.50;100.00;99623.00;5064682;28;20052;-84
2023/08/03 09:10:30;;;;;;;7.63;2.50;;;;;;;15.46;100.00;99635.53;5066675;28;20056;-77
2023/08/03 09:12:57;;;;;;;10.30;2.30;;;;;;;15.52;100.00;99642.44;5064465;28;20036;-76
2023/08/03 09:15:42;;;;;;;12.07;2.50;;;;;;;15.52;100.00;99645.13;5065271;28;20114;-84
2023/08/03 09:18:07;;;;;;;10.15;2.50;;;;;;;15.59;100.00;99643.97;5060094;28;20037;-75
2023/08/03 09:20:34;;;;;;;12.98;2.60;;;;;;;15.74;100.00;99649.69;5059410;28;20021;-71
2023/08/03 09:23:01;;;;;;;9.23;2.45;;;;;;;15.99;100.00;99653.25;5064013;28;20083;-73
2023/08/03 09:25:26;;;;;;;7.13;2.20;;;;;;;16.11;100.00;99661.72;5066939;28;20094;-85
2023/08/03 09:27:54;;;;;;;6.68;2.20;;;;;;;16.12;100.00;99666.09;5063458;28;20033;-68
2023/08/03 09:30:20;;;;;;;8.13;2.40;;;;;;;16.11;100.00;99678.56;5060780;28;20380;-85
2023/08/03 09:32:46;;;;;;;10.10;2.40;;;;;;;16.06;100.00;99674.31;5064660;28;20025;-83
2023/08/03 09:35:23;;;;;;;10.95;2.60;;;;;;;15.82;100.00;99687.63;5064208;28;20040;-70
2023/08/03 09:37:53;;;;;;;12.70;2.97;;;;;;;15.63;100.00;99688.22;5065103;28;20029;-74
2023/08/03 09:40:20;;;;;;;13.40;2.95;;;;;;;15.69;100.00;99701.31;5064484;28;20036;-78
2023/08/03 09:42:47;;;;;;;15.95;3.38;;;;;;;15.75;100.00;99712.72;5063290;28;20387;-75
2023/08/03 09:45:13;;;;;;;19.48;3.60;;;;;;;15.89;100.00;99717.56;5064173;28;20029;-68
2023/08/03 09:47:39;;;;;;;15.73;3.55;;;;;;;16.04;100.00;99720.56;5065766;28;20021;-72
2023/08/03 09:50:05;;;;;;;18.63;3.67;;;;;;;16.21;100.00;99727.09;5063160;28;20025;-83
2023/08/03 09:52:36;;;;;;;16.17;3.78;;;;;;;16.38;100.00;99723.78;5062599;28;20472;-80
2023/08/03 09:55:07;;;;;;;16.40;3.40;;;;;;;16.44;100.00;99736.03;5061597;28;20122;-79
2023/08/03 09:57:39;;;;;;;17.48;3.60;;;;;;;16.38;100.00;99735.34;5063742;28;20418;-69
2023/08/03 10:00:08;;;;;;;18.25;3.78;;;;;;;16.18;100.00;99744.06;5064203;28;20044;-80
2023/08/03 10:02:48;;;;;;;19.27;4.40;;;;;;;16.09;100.00;99756.84;5064771;28;20033;-69
2023/08/03 10:05:17;;;;;;;19.20;4.18;;;;;;;16.12;100.00;99754.06;5064862;28;20249;-79
2023/08/03 10:07:49;;;;;;;20.27;4.28;;;;;;;16.21;100.00;99754.63;5063475;28;20384;-80
2023/08/03 10:10:19;;;;;;;20.83;4.60;;;;;;;16.66;100.00;99768.97;5065468;28;20460;-80
2023/08/03 10:12:49;;;;;;;19.27;4.20;;;;;;;16.64;100.00;99761.94;5063247;28;20029;-79
2023/08/03 10:15:16;;;;;;;19.60;4.13;;;;;;;16.58;100.00;99764.84;5064973;28;20074;-80
2023/08/03 10:17:46;;;;;;;18.33;4.10;;;;;;;16.70;100.00;99767.94;5063171;28;20418;-79
2023/08/03 10:20:12;;;;;;;17.38;4.00;;;;;;;17.21;100.00;99779.34;5064953;28;20036;-72
2023/08/03 10:22:37;;;;;;;15.52;3.70;;;;;;;17.80;100.00;99768.06;5064051;28;20058;-81
2023/08/03 10:25:19;;;;;;;17.92;4.40;;;;;;;18.72;100.00;99763.13;5062027;28;20535;-69
2023/08/03 10:28:14;;;;;;;14.93;3.20;;;;;;;19.42;100.00;99747.31;5058454;28;20059;-78
2023/08/03 10:31:18;;;;;;;14.35;2.95;;;;;;;19.30;100.00;99748.78;5053100;28;20365;-80
2023/08/03 10:33:46;;;;;;;13.95;2.72;;;;;;;18.92;100.00;99748.84;5058414;28;20126;-81
2023/08/03 10:39:12;;;;;;;10.93;2.88;;;;;;;19.22;100.00;99759.00;5061068;28;20079;-80
2023/08/03 10:41:49;;;;;;;10.98;2.85;;;;;;;18.85;100.00;99780.34;5062191;28;20029;-77
2023/08/03 10:44:14;;;;;;;15.88;3.20;;;;;;;18.20;100.00;99774.38;5058106;28;20103;-87
2023/08/03 10:46:50;;;;;;;12.63;3.00;;;;;;;18.09;100.00;99775.72;5063115;28;20127;-82
2023/08/03 10:49:22;;;;;;;12.98;2.92;;;;;;;18.02;100.00;99779.59;5057053;28;20024;-83
2023/08/03 10:51:55;;;;;;;15.57;3.47;;;;;;;18.23;100.00;99785.81;5055126;28;20120;-76
2023/08/03 10:54:28;;;;;;;17.42;3.33;;;;;;;18.80;100.00;99777.03;5055412;28;20074;-85
2023/08/03 10:57:04;;;;;;;13.57;3.10;;;;;;;19.17;100.00;99781.50;5057162;28;20048;-71
2023/08/03 10:59:37;;;;;;;15.93;3.17;;;;;;;19.06;100.00;99802.59;5061161;28;20025;-81
2023/08/03 11:02:22;;;;;;;16.52;3.08;;;;;;;18.89;100.00;99789.16;5063475;28;20063;-85
2023/08/03 11:04:52;;;;;;;14.93;3.45;;;;;;;18.64;100.00;99798.28;5058293;28;20025;-78
2023/08/03 11:07:23;;;;;;;16.27;3.60;;;;;;;18.34;100.00;99800.53;5057326;28;20475;-85
2023/08/03 11:09:49;;;;;;;14.27;3.60;;;;;;;18.14;100.00;99810.25;5057722;28;20021;-85
2023/08/03 11:12:16;;;;;;;16.20;3.75;;;;;;;17.97;100.00;99811.00;5064501;28;20059;-84
2023/08/03 11:14:44;;;;;;;16.23;3.60;;;;;;;17.88;100.00;99824.72;5061646;28;20029;-72
2023/08/03 11:17:09;;;;;;;16.35;3.72;;;;;;;17.62;100.00;99824.00;5063662;28;20493;-81